Time;durP1;ratioP1;P1;durP2;ratioP2;P2;SDS_P1;SDS_P2;PMS_P1;PMS_P2;Temp;Humidity;BMP_temperature;BMP_pressure;BME280_temperature;BME280_humidity;BME280_pressure;Samples;Min_cycle;Max_cycle;Signal;HPM_P1;HPM_P2
2022/06/19 00:02:10;;;;;;;1.50;1.40;;;;;;;22.34;59.32;95264.91;4385090;32;20180;-62
2022/06/19 00:04:36;;;;;;;1.07;1.07;;;;;;;22.21;59.71;95270.59;4384023;32;20264;-62
2022/06/19 00:07:01;;;;;;;0.90;0.90;;;;;;;21.98;60.41;95267.19;4388405;32;20234;-62
2022/06/19 00:09:27;;;;;;;1.17;0.70;;;;;;;22.06;60.33;95257.25;4379041;32;20203;-63
2022/06/19 00:11:54;;;;;;;0.63;0.63;;;;;;;22.00;60.41;95250.59;4373788;32;20231;-62
2022/06/19 00:14:20;;;;;;;1.93;0.77;;;;;;;22.03;60.47;95241.78;4379243;32;20251;-63
2022/06/19 00:16:46;;;;;;;0.60;0.60;;;;;;;22.02;60.58;95237.53;4379703;32;20231;-62
2022/06/19 00:19:13;;;;;;;1.10;1.10;;;;;;;21.92;60.40;95230.81;4379350;32;20202;-62
2022/06/19 00:21:38;;;;;;;0.70;0.70;;;;;;;21.98;59.97;95225.88;4374812;32;20304;-62
2022/06/19 00:24:04;;;;;;;0.80;0.80;;;;;;;21.94;60.08;95226.59;4378038;32;20193;-62
2022/06/19 00:26:29;;;;;;;0.50;0.50;;;;;;;21.97;60.11;95218.91;4366413;32;20196;-62
2022/06/19 00:28:56;;;;;;;11.87;0.83;;;;;;;21.94;59.93;95218.50;4383036;32;20180;-62
2022/06/19 00:31:22;;;;;;;0.70;0.67;;;;;;;21.92;59.74;95209.97;4383046;32;20188;-62
2022/06/19 00:33:49;;;;;;;1.50;0.77;;;;;;;21.91;59.77;95202.25;4381180;32;20218;-62
2022/06/19 00:36:15;;;;;;;5.10;1.77;;;;;;;21.89;59.95;95199.91;4381201;32;20252;-62
2022/06/19 00:38:40;;;;;;;3.40;0.80;;;;;;;21.86;59.89;95200.63;4379641;32;20188;-62
2022/06/19 00:41:05;;;;;;;23.37;1.23;;;;;;;21.82;60.13;95199.81;4386565;32;20233;-62
2022/06/19 00:43:31;;;;;;;0.63;0.43;;;;;;;21.88;59.87;95187.53;4378602;32;20244;-62
2022/06/19 00:46:54;;;;;;;0.77;0.70;;;;;;;21.85;59.80;95182.09;4387087;32;20241;-62
2022/06/19 00:49:31;;;;;;;1.00;1.00;;;;;;;21.84;59.42;95170.50;4343799;32;20181;-62
2022/06/19 00:52:24;;;;;;;0.67;0.67;;;;;;;21.74;59.70;95160.37;4384654;32;20191;-62
2022/06/19 00:55:08;;;;;;;0.50;0.50;;;;;;;21.82;59.37;95153.91;4376154;32;20188;-62
2022/06/19 00:57:38;;;;;;;0.70;0.70;;;;;;;21.75;59.71;95137.63;4375834;32;20298;-62
2022/06/19 01:00:12;;;;;;;1.67;0.93;;;;;;;21.81;59.24;95138.09;4373707;32;20264;-62
2022/06/19 01:02:39;;;;;;;1.00;0.93;;;;;;;21.82;59.55;95139.66;4381513;32;20183;-62
2022/06/19 01:05:06;;;;;;;1.20;1.00;;;;;;;21.77;60.43;95143.44;4382777;32;20193;-63
2022/06/19 01:07:31;;;;;;;2.70;1.00;;;;;;;21.79;61.32;95151.97;4376717;32;20192;-62
2022/06/19 01:09:58;;;;;;;0.60;0.60;;;;;;;21.74;62.02;95152.28;4380164;32;20188;-62
2022/06/19 01:12:25;;;;;;;0.30;0.30;;;;;;;21.70;61.21;95150.69;4376960;32;20224;-62
2022/06/19 01:14:56;;;;;;;0.67;0.67;;;;;;;21.67;62.09;95157.59;4380045;32;20185;-62
2022/06/19 01:17:22;;;;;;;0.87;0.87;;;;;;;21.57;63.99;95163.66;4379862;32;20189;-62
2022/06/19 01:19:48;;;;;;;0.63;0.63;;;;;;;21.57;63.27;95166.34;4375838;32;20219;-62
2022/06/19 01:22:43;;;;;;;2.70;1.20;;;;;;;21.45;64.10;95163.88;4380238;32;20184;-62
2022/06/19 01:25:28;;;;;;;0.50;0.50;;;;;;;21.42;64.29;95162.69;4371421;32;20189;-62
2022/06/19 01:30:50;;;;;;;4.07;1.53;;;;;;;21.13;64.28;95148.00;4376907;32;20200;-62
2022/06/19 01:33:20;;;;;;;0.80;0.80;;;;;;;21.17;63.88;95154.25;4372848;32;20176;-61
2022/06/19 01:35:48;;;;;;;0.37;0.37;;;;;;;21.13;64.26;95148.00;4378380;32;20193;-61
2022/06/19 01:38:16;;;;;;;2.40;1.23;;;;;;;21.00;63.52;95138.56;4372963;32;20188;-63
2022/06/19 01:40:44;;;;;;;0.83;0.80;;;;;;;21.22;64.28;95131.56;4370896;32;20176;-62
2022/06/19 01:43:10;;;;;;;1.27;1.17;;;;;;;21.20;63.28;95110.34;4382697;32;20188;-62
2022/06/19 01:45:39;;;;;;;1.83;1.23;;;;;;;21.13;64.67;95110.25;4384905;32;20184;-62
2022/06/19 01:48:05;;;;;;;1.73;1.17;;;;;;;21.24;65.09;95105.78;4378839;32;20207;-62
2022/06/19 01:50:31;;;;;;;0.70;0.70;;;;;;;21.27;64.20;95086.16;4379099;32;20208;-62
2022/06/19 01:53:13;;;;;;;0.57;0.57;;;;;;;21.33;63.32;95092.00;4373989;32;20184;-62
2022/06/19 01:55:39;;;;;;;0.97;0.93;;;;;;;21.37;63.13;95086.66;4372190;32;20189;-61
2022/06/19 01:58:06;;;;;;;0.77;0.77;;;;;;;21.33;63.66;95085.84;4387537;32;20188;-62
2022/06/19 02:00:34;;;;;;;1.00;1.00;;;;;;;21.19;63.72;95081.81;4381559;32;20181;-62
2022/06/19 02:03:26;;;;;;;0.77;0.77;;;;;;;21.24;63.65;95078.00;4372124;32;20180;-62
2022/06/19 02:05:53;;;;;;;0.93;0.93;;;;;;;21.18;64.41;95074.84;4366445;32;20245;-61
2022/06/19 02:08:19;;;;;;;2.47;1.23;;;;;;;20.91;64.61;95070.63;4370132;32;20234;-62
2022/06/19 02:10:45;;;;;;;0.77;0.77;;;;;;;20.79;65.63;95077.00;4383941;32;20255;-62
2022/06/19 02:13:14;;;;;;;1.13;1.03;;;;;;;20.70;66.47;95071.13;4373121;32;20247;-62
2022/06/19 02:15:43;;;;;;;1.13;0.80;;;;;;;20.82;67.37;95065.50;4396237;32;20189;-62
2022/06/19 02:18:17;;;;;;;1.63;1.47;;;;;;;20.97;66.55;95074.56;4371463;32;20203;-62
2022/06/19 02:20:44;;;;;;;0.50;0.50;;;;;;;20.90;66.83;95058.28;4374827;32;20234;-62
2022/06/19 02:23:10;;;;;;;1.40;1.20;;;;;;;20.76;66.96;95050.03;4393004;32;20195;-62
2022/06/19 02:25:40;;;;;;;5.93;1.10;;;;;;;20.82;67.03;95052.00;4388095;32;20184;-62
2022/06/19 02:28:07;;;;;;;1.30;1.13;;;;;;;20.81;66.97;95044.28;4382246;32;20180;-62
2022/06/19 02:30:33;;;;;;;1.03;1.00;;;;;;;20.78;68.36;95042.34;4378144;32;20188;-62
2022/06/19 02:32:59;;;;;;;1.07;1.07;;;;;;;20.87;68.09;95043.62;4387369;32;20184;-62
2022/06/19 02:35:26;;;;;;;2.13;1.37;;;;;;;20.55;67.25;95043.19;4384198;32;20239;-62
2022/06/19 02:37:56;;;;;;;2.97;1.70;;;;;;;20.48;68.53;95040.38;4375688;32;20207;-62
2022/06/19 02:40:47;;;;;;;1.23;1.17;;;;;;;20.31;69.80;95043.56;4388798;32;20191;-62
2022/06/19 02:43:17;;;;;;;0.37;0.37;;;;;;;20.36;69.05;95035.19;4386274;32;20235;-62
2022/06/19 02:45:43;;;;;;;0.90;0.90;;;;;;;20.36;69.84;95029.78;4385216;32;20248;-62
2022/06/19 02:48:19;;;;;;;1.37;1.27;;;;;;;20.37;69.78;95023.25;4380240;32;20190;-62
2022/06/19 02:50:44;;;;;;;0.97;0.90;;;;;;;20.44;70.32;95026.06;4380534;32;20200;-62
2022/06/19 02:53:11;;;;;;;0.57;0.57;;;;;;;20.36;70.29;95020.94;4373401;32;20203;-62
2022/06/19 02:55:36;;;;;;;0.70;0.70;;;;;;;20.25;69.87;95024.22;4392572;32;20227;-62
2022/06/19 02:58:02;;;;;;;2.10;1.33;;;;;;;20.16;69.87;95020.25;4375225;32;20185;-62
2022/06/19 03:00:28;;;;;;;0.30;0.30;;;;;;;20.27;70.73;95012.31;4373860;32;20220;-62
2022/06/19 03:02:57;;;;;;;0.97;0.97;;;;;;;20.26;72.06;95014.22;4380118;32;20295;-62
2022/06/19 03:05:26;;;;;;;0.90;0.90;;;;;;;20.22;72.55;95019.56;4381890;32;20207;-61
2022/06/19 03:07:52;;;;;;;2.00;1.23;;;;;;;20.18;71.14;95017.94;4382462;32;20252;-61
2022/06/19 03:10:18;;;;;;;0.80;0.80;;;;;;;20.08;71.06;95018.56;4383315;32;20203;-62
2022/06/19 03:12:44;;;;;;;1.20;1.17;;;;;;;20.09;72.02;95017.44;4390867;32;20263;-62
2022/06/19 03:15:12;;;;;;;1.27;1.17;;;;;;;20.14;72.39;95011.75;4368703;32;20197;-61
2022/06/19 03:17:39;;;;;;;1.27;1.17;;;;;;;20.28;72.07;95021.94;4377330;32;20181;-62
2022/06/19 03:20:06;;;;;;;0.93;0.93;;;;;;;20.22;71.34;95024.16;4393021;32;20261;-62
2022/06/19 03:22:31;;;;;;;0.47;0.47;;;;;;;20.29;71.14;95026.97;4375815;32;20231;-62
2022/06/19 03:24:57;;;;;;;13.83;1.53;;;;;;;20.33;71.17;95019.72;4379174;32;20197;-62
2022/06/19 03:27:22;;;;;;;0.90;0.90;;;;;;;20.34;70.40;95032.06;4389877;32;20199;-62
2022/06/19 03:29:47;;;;;;;8.50;1.67;;;;;;;20.29;68.87;95032.37;4386689;32;20227;-62
2022/06/19 03:32:14;;;;;;;0.47;0.47;;;;;;;20.05;70.06;95038.91;4385416;32;20196;-61
2022/06/19 03:34:42;;;;;;;0.53;0.53;;;;;;;19.95;70.71;95042.22;4396401;32;20212;-62
2022/06/19 03:37:08;;;;;;;0.77;0.77;;;;;;;19.98;71.88;95030.72;4385305;32;20188;-62
2022/06/19 03:39:33;;;;;;;2.37;1.80;;;;;;;19.93;69.88;95027.56;4383865;32;20277;-62
2022/06/19 03:41:58;;;;;;;2.23;0.73;;;;;;;20.13;71.60;95016.34;4375496;32;20195;-62
2022/06/19 03:44:24;;;;;;;4.13;1.40;;;;;;;20.22;70.89;95027.62;4385705;32;20251;-62
2022/06/19 03:46:49;;;;;;;0.87;0.87;;;;;;;20.29;68.73;95024.28;4381478;32;20200;-62
2022/06/19 03:49:16;;;;;;;2.40;0.97;;;;;;;20.26;68.90;95027.69;4382762;32;20196;-61
2022/06/19 03:51:41;;;;;;;0.90;0.90;;;;;;;20.20;66.92;95026.44;4378769;32;20202;-62
2022/06/19 03:54:08;;;;;;;0.70;0.70;;;;;;;20.14;67.79;95022.53;4385900;32;20255;-62
2022/06/19 03:56:34;;;;;;;0.97;0.97;;;;;;;20.17;66.99;95021.78;4386340;32;20207;-61
2022/06/19 03:58:59;;;;;;;1.13;1.13;;;;;;;20.27;66.33;95017.69;4380476;32;20185;-61
2022/06/19 04:01:31;;;;;;;1.40;1.30;;;;;;;20.41;68.68;95021.41;4379672;32;20180;-61
2022/06/19 04:03:58;;;;;;;0.87;0.87;;;;;;;20.43;66.26;95023.72;4389840;32;20188;-61
2022/06/19 04:06:27;;;;;;;0.90;0.90;;;;;;;20.44;66.21;95019.91;4378962;32;20192;-61
2022/06/19 04:08:53;;;;;;;0.67;0.60;;;;;;;20.50;66.35;95021.94;4371325;32;20189;-61
2022/06/19 04:11:22;;;;;;;2.47;0.83;;;;;;;20.52;66.58;95011.56;4379887;32;20207;-61
2022/06/19 04:13:48;;;;;;;0.50;0.50;;;;;;;20.61;66.00;95018.59;4393731;32;20233;-62
2022/06/19 04:16:16;;;;;;;0.93;0.93;;;;;;;20.49;65.94;95017.69;4380310;32;20184;-61
2022/06/19 04:18:42;;;;;;;1.10;1.00;;;;;;;20.58;67.39;95012.78;4377574;32;20207;-61
2022/06/19 04:21:12;;;;;;;3.90;1.00;;;;;;;20.55;66.42;95016.22;4377676;32;20191;-61
2022/06/19 04:23:38;;;;;;;1.07;0.70;;;;;;;20.62;66.83;95014.75;4380621;32;20203;-61
2022/06/19 04:26:12;;;;;;;2.10;1.87;;;;;;;20.65;67.57;95011.34;4376629;32;20236;-62
2022/06/19 04:28:37;;;;;;;1.03;0.93;;;;;;;20.58;66.50;95015.47;4374961;32;20190;-62
2022/06/19 04:31:07;;;;;;;1.40;1.03;;;;;;;20.64;66.43;95013.25;4371556;32;20241;-62
2022/06/19 04:33:37;;;;;;;0.70;0.70;;;;;;;20.67;66.40;95007.13;4389483;32;20188;-62
2022/06/19 04:36:09;;;;;;;0.73;0.73;;;;;;;20.64;67.86;95015.16;4382216;32;20185;-62
2022/06/19 04:38:35;;;;;;;1.47;1.10;;;;;;;20.61;66.94;95013.97;4371194;32;20271;-62
2022/06/19 04:41:02;;;;;;;0.70;0.70;;;;;;;20.68;66.58;95024.09;4368809;32;20186;-62
2022/06/19 04:43:27;;;;;;;1.17;1.17;;;;;;;20.64;67.05;95024.03;4376268;32;20227;-62
2022/06/19 04:46:14;;;;;;;0.90;0.90;;;;;;;20.77;67.85;95025.38;4376654;32;20192;-62
2022/06/19 04:48:39;;;;;;;1.13;1.07;;;;;;;20.82;66.77;95029.66;4367840;32;20172;-62
2022/06/19 04:51:06;;;;;;;0.87;0.87;;;;;;;20.78;68.57;95031.56;4372641;32;20200;-62
2022/06/19 04:53:32;;;;;;;0.70;0.70;;;;;;;20.63;67.83;95033.25;4369547;32;20205;-62
2022/06/19 04:55:58;;;;;;;1.53;0.97;;;;;;;20.71;68.03;95032.22;4372198;32;20173;-62
2022/06/19 04:58:24;;;;;;;1.60;1.50;;;;;;;20.78;67.36;95036.94;4366942;32;20243;-62
2022/06/19 05:00:50;;;;;;;1.40;1.17;;;;;;;20.79;66.94;95025.78;4381778;32;20195;-62
2022/06/19 05:03:17;;;;;;;0.63;0.63;;;;;;;20.86;67.19;95031.25;4371434;32;20186;-62
2022/06/19 05:05:43;;;;;;;1.50;0.83;;;;;;;20.88;67.29;95033.59;4370465;32;20189;-62
2022/06/19 05:08:09;;;;;;;1.27;0.90;;;;;;;20.85;68.01;95040.50;4373456;32;20229;-62
2022/06/19 05:10:34;;;;;;;0.60;0.60;;;;;;;20.78;69.21;95042.34;4371348;32;20258;-61
2022/06/19 05:13:02;;;;;;;0.87;0.87;;;;;;;20.87;69.23;95037.44;4378685;32;20184;-62
2022/06/19 05:15:29;;;;;;;1.43;1.13;;;;;;;20.85;69.96;95037.03;4367426;32;20226;-62
2022/06/19 05:17:54;;;;;;;1.37;1.20;;;;;;;20.95;68.75;95043.72;4382325;32;20208;-62
2022/06/19 05:20:19;;;;;;;1.53;0.90;;;;;;;20.92;69.82;95039.81;4376298;32;20218;-62
2022/06/19 05:22:45;;;;;;;1.97;1.03;;;;;;;20.91;69.59;95043.66;4371332;32;20196;-63
2022/06/19 05:25:11;;;;;;;1.17;1.07;;;;;;;21.01;70.07;95044.94;4381879;32;20240;-62
2022/06/19 05:27:38;;;;;;;7.70;1.33;;;;;;;20.99;70.12;95039.16;4366621;32;20256;-61
2022/06/19 05:30:05;;;;;;;0.70;0.70;;;;;;;21.00;69.78;95040.66;4385236;32;20259;-62
2022/06/19 05:32:30;;;;;;;0.87;0.87;;;;;;;21.06;69.57;95040.00;4380464;32;20204;-61
2022/06/19 05:34:56;;;;;;;0.97;0.93;;;;;;;21.12;69.53;95037.75;4378783;32;20192;-61
2022/06/19 05:37:21;;;;;;;1.23;1.23;;;;;;;21.14;68.80;95030.06;4388732;32;20242;-62
2022/06/19 05:39:46;;;;;;;11.03;1.17;;;;;;;21.14;68.55;95030.84;4385452;32;20254;-62
2022/06/19 05:42:12;;;;;;;0.63;0.63;;;;;;;21.20;68.15;95028.62;4383186;32;20185;-62
2022/06/19 05:44:37;;;;;;;8.50;2.00;;;;;;;21.26;67.51;95022.53;4377232;32;20220;-62
2022/06/19 05:47:04;;;;;;;1.13;1.13;;;;;;;21.32;64.83;95030.31;4385126;32;20307;-62
2022/06/19 05:49:31;;;;;;;1.07;1.07;;;;;;;21.40;68.01;95026.56;4377931;32;20215;-62
2022/06/19 05:51:59;;;;;;;1.27;1.17;;;;;;;21.44;64.84;95027.34;4383584;32;20211;-62
2022/06/19 05:54:26;;;;;;;0.80;0.80;;;;;;;21.51;64.62;95027.44;4372236;32;20238;-62
2022/06/19 05:56:51;;;;;;;1.80;1.03;;;;;;;21.59;65.64;95010.94;4364849;32;20185;-62
2022/06/19 05:59:16;;;;;;;1.13;1.13;;;;;;;21.67;65.45;95021.78;4377316;32;20207;-62
2022/06/19 06:01:42;;;;;;;2.53;0.93;;;;;;;21.76;65.33;95023.06;4375768;32;20197;-62
2022/06/19 06:04:09;;;;;;;0.77;0.77;;;;;;;21.80;63.85;95018.47;4378422;32;20185;-62
2022/06/19 06:06:34;;;;;;;1.80;1.40;;;;;;;21.89;61.64;95024.31;4380184;32;20260;-62
2022/06/19 06:08:59;;;;;;;8.77;0.80;;;;;;;22.02;60.25;95014.06;4380308;32;20185;-62
2022/06/19 06:11:25;;;;;;;1.70;0.73;;;;;;;22.13;61.58;95022.22;4369473;32;20193;-62
2022/06/19 06:13:51;;;;;;;2.67;1.10;;;;;;;22.22;60.78;95025.41;4380197;32;20207;-62
2022/06/19 06:16:19;;;;;;;6.33;2.47;;;;;;;22.34;61.27;95027.00;4378346;32;20217;-62
2022/06/19 06:18:45;;;;;;;1.33;0.93;;;;;;;22.41;60.12;95021.66;4376308;32;20196;-62
2022/06/19 06:21:13;;;;;;;2.00;1.83;;;;;;;22.52;61.20;95030.63;4376252;32;20236;-62
2022/06/19 06:23:39;;;;;;;0.93;0.90;;;;;;;22.62;60.51;95027.22;4386883;32;20212;-62
2022/06/19 06:26:10;;;;;;;0.80;0.80;;;;;;;22.69;62.51;95038.06;4386704;32;20216;-62
2022/06/19 06:28:38;;;;;;;1.50;1.40;;;;;;;22.77;59.78;95047.00;4376869;32;20317;-62
2022/06/19 06:31:06;;;;;;;1.33;1.33;;;;;;;22.91;60.89;95047.09;4375146;32;20203;-62
2022/06/19 06:33:32;;;;;;;2.07;1.60;;;;;;;22.96;58.96;95047.53;4387273;32;20247;-62
2022/06/19 06:35:58;;;;;;;1.40;1.40;;;;;;;23.05;58.11;95046.41;4374061;32;20185;-62
2022/06/19 06:38:24;;;;;;;7.77;1.87;;;;;;;23.14;57.62;95042.19;4377641;32;20188;-62
2022/06/19 06:40:50;;;;;;;1.37;1.37;;;;;;;23.28;57.18;95049.59;4367471;32;20185;-62
2022/06/19 06:43:16;;;;;;;1.97;1.30;;;;;;;23.41;57.03;95041.91;4380618;32;20206;-62
2022/06/19 06:45:42;;;;;;;1.60;1.50;;;;;;;23.54;57.26;95062.09;4382024;32;20292;-62
2022/06/19 06:48:08;;;;;;;0.80;0.80;;;;;;;23.63;56.77;95057.09;4374509;32;20252;-62
2022/06/19 06:50:34;;;;;;;7.47;2.83;;;;;;;23.79;56.67;95056.72;4371461;32;20180;-62
2022/06/19 06:53:00;;;;;;;1.63;1.53;;;;;;;23.90;56.35;95052.13;4371803;32;20232;-63
2022/06/19 06:55:27;;;;;;;4.23;2.50;;;;;;;24.06;55.43;95049.81;4376956;32;20207;-62
2022/06/19 06:57:52;;;;;;;1.90;1.80;;;;;;;24.17;55.78;95045.16;4381509;32;20176;-62
2022/06/19 07:00:22;;;;;;;10.70;2.23;;;;;;;24.30;54.71;95045.59;4376824;32;20258;-62
2022/06/19 07:02:48;;;;;;;1.63;1.43;;;;;;;24.50;54.15;95041.31;4375547;32;20180;-62
2022/06/19 07:05:14;;;;;;;3.10;1.17;;;;;;;24.76;53.64;95044.75;4370817;32;20243;-62
2022/06/19 07:07:40;;;;;;;1.53;0.97;;;;;;;25.03;53.37;95045.88;4384769;32;20200;-63
2022/06/19 07:10:06;;;;;;;1.40;1.30;;;;;;;25.13;54.04;95045.06;4382477;32;20294;-62
2022/06/19 07:12:31;;;;;;;1.80;1.70;;;;;;;25.24;52.94;95034.94;4376684;32;20193;-62
2022/06/19 07:14:57;;;;;;;2.93;1.93;;;;;;;25.34;51.97;95034.13;4386716;32;20230;-62
2022/06/19 07:17:23;;;;;;;3.17;1.73;;;;;;;25.49;52.75;95037.53;4370697;32;20203;-63
2022/06/19 07:19:48;;;;;;;0.93;0.93;;;;;;;25.66;51.01;95036.69;4372758;32;20173;-62
2022/06/19 07:22:16;;;;;;;1.40;1.33;;;;;;;25.82;51.47;95047.09;4376096;32;20198;-62
2022/06/19 07:24:42;;;;;;;2.77;2.10;;;;;;;25.94;51.05;95041.19;4389912;32;20203;-62
2022/06/19 07:27:08;;;;;;;0.97;0.97;;;;;;;25.93;50.49;95028.78;4381813;32;20204;-63
2022/06/19 07:29:40;;;;;;;3.60;1.70;;;;;;;25.91;50.07;95033.84;4381824;32;20185;-62
2022/06/19 07:32:05;;;;;;;1.80;1.27;;;;;;;25.89;49.81;95035.41;4362348;32;20236;-63
2022/06/19 07:34:31;;;;;;;1.30;1.20;;;;;;;25.92;50.69;95029.16;4383623;32;20256;-62
2022/06/19 07:36:56;;;;;;;0.97;0.97;;;;;;;25.93;49.76;95031.50;4377336;32;20208;-63
2022/06/19 07:39:21;;;;;;;3.50;1.20;;;;;;;25.96;49.30;95030.69;4377883;32;20185;-63
2022/06/19 07:41:46;;;;;;;1.97;1.33;;;;;;;26.00;49.48;95036.88;4382368;32;20247;-61
2022/06/19 07:44:14;;;;;;;2.10;1.20;;;;;;;26.03;50.14;95036.06;4371269;32;20211;-62
2022/06/19 07:50:09;;;;;;;1.50;1.40;;;;;;;26.13;49.84;95029.00;4373876;32;20199;-63
2022/06/19 07:50:10;;;;;;;1.23;1.13;;;;;;;26.19;49.88;95032.06;4372983;32;20236;-63
2022/06/19 07:52:10;;;;;;;0.80;0.80;;;;;;;26.30;50.00;95035.50;4361482;32;20231;-64
2022/06/19 07:54:36;;;;;;;0.97;0.97;;;;;;;26.39;50.65;95032.34;4376336;32;20279;-63
2022/06/19 07:57:01;;;;;;;2.27;1.40;;;;;;;26.43;50.11;95025.69;4387248;32;20192;-63
2022/06/19 07:59:28;;;;;;;1.00;1.00;;;;;;;26.52;49.55;95031.44;4375343;32;20215;-63
2022/06/19 08:01:54;;;;;;;1.93;1.47;;;;;;;26.63;49.27;95023.16;4365984;32;20193;-63
2022/06/19 08:04:21;;;;;;;1.17;1.17;;;;;;;26.77;48.19;95027.72;4365024;32;20250;-63
2022/06/19 08:06:46;;;;;;;2.30;1.83;;;;;;;26.91;47.29;95038.44;4372905;32;20230;-65
2022/06/19 08:09:11;;;;;;;8.50;2.07;;;;;;;26.96;46.16;95044.25;4376776;32;20193;-63
2022/06/19 08:11:37;;;;;;;10.17;4.77;;;;;;;27.00;46.00;95036.81;4374781;32;20184;-63
2022/06/19 08:14:02;;;;;;;5.53;1.63;;;;;;;27.03;45.89;95038.72;4369191;32;20256;-64
2022/06/19 08:16:28;;;;;;;1.93;1.83;;;;;;;27.04;45.94;95036.75;4385167;32;20210;-63
2022/06/19 08:18:53;;;;;;;1.37;1.37;;;;;;;27.07;45.96;95049.56;4372904;32;20203;-63
2022/06/19 08:21:18;;;;;;;5.50;1.87;;;;;;;27.03;46.36;95048.81;4376870;32;20188;-63
2022/06/19 08:23:44;;;;;;;1.70;0.73;;;;;;;27.10;45.29;95048.75;4386504;32;20203;-63
2022/06/19 08:26:09;;;;;;;1.23;1.23;;;;;;;27.09;45.71;95043.72;4384067;32;20221;-63
2022/06/19 08:28:39;;;;;;;1.17;1.07;;;;;;;27.21;46.50;95043.22;4389741;32;20273;-63
2022/06/19 08:31:05;;;;;;;5.60;1.23;;;;;;;27.28;46.14;95037.66;4396446;32;20211;-62
2022/06/19 08:33:32;;;;;;;1.13;1.13;;;;;;;27.32;46.35;95038.38;4383402;32;20244;-63
2022/06/19 08:36:04;;;;;;;2.53;1.43;;;;;;;27.40;45.97;95041.81;4374765;32;20227;-63
2022/06/19 08:38:35;;;;;;;1.70;1.33;;;;;;;27.79;45.12;95041.31;4378296;32;20219;-63
2022/06/19 08:41:06;;;;;;;1.40;1.40;;;;;;;27.75;45.19;95041.38;4381982;32;20176;-63
2022/06/19 08:44:07;;;;;;;1.43;1.27;;;;;;;27.74;44.99;95039.81;4387172;32;20276;-63
2022/06/19 08:46:55;;;;;;;5.40;1.97;;;;;;;27.74;45.18;95039.81;4381294;32;20229;-63
2022/06/19 08:49:58;;;;;;;2.30;1.90;;;;;;;27.79;44.47;95041.31;4376063;32;20185;-63
2022/06/19 08:52:52;;;;;;;1.70;1.60;;;;;;;27.90;43.62;95042.69;4391502;32;20177;-63
2022/06/19 08:55:36;;;;;;;1.70;1.60;;;;;;;27.92;44.15;95034.88;4382568;32;20207;-64
2022/06/19 08:58:27;;;;;;;1.83;1.43;;;;;;;27.91;43.98;95038.78;4375324;32;20212;-63
2022/06/19 09:01:30;;;;;;;1.20;1.20;;;;;;;27.96;44.16;95030.16;4371613;32;20185;-65
2022/06/19 09:07:03;;;;;;;2.03;1.13;;;;;;;27.96;44.38;95030.16;4378088;32;20192;-64
2022/06/19 09:09:47;;;;;;;1.17;1.17;;;;;;;28.00;45.23;95036.34;4372080;32;20207;-64
2022/06/19 09:12:27;;;;;;;1.50;1.33;;;;;;;28.02;44.83;95033.97;4378303;32;20255;-63
2022/06/19 09:15:09;;;;;;;1.17;1.07;;;;;;;28.13;44.52;95033.00;4381936;32;20188;-64
2022/06/19 09:18:01;;;;;;;2.77;2.57;;;;;;;28.25;42.97;95027.03;4365875;32;20192;-64
2022/06/19 09:20:45;;;;;;;1.20;1.20;;;;;;;28.40;43.38;95036.50;4373774;32;20263;-62
2022/06/19 09:23:41;;;;;;;4.53;2.47;;;;;;;28.43;44.14;95038.41;4383538;32;20193;-65
2022/06/19 09:26:20;;;;;;;1.50;1.40;;;;;;;28.48;43.70;95039.87;4375456;32;20304;-65
2022/06/19 09:29:18;;;;;;;1.97;1.87;;;;;;;28.63;42.07;95035.75;4376546;32;20280;-64
2022/06/19 09:32:08;;;;;;;2.87;1.57;;;;;;;28.81;42.42;95027.25;4377970;32;20184;-64
2022/06/19 09:35:16;;;;;;;1.80;1.70;;;;;;;28.80;42.25;95036.59;4381232;32;20192;-65
2022/06/19 09:37:44;;;;;;;1.97;1.67;;;;;;;28.67;43.65;95036.44;4390113;32;20244;-64
2022/06/19 09:40:31;;;;;;;1.90;1.80;;;;;;;28.71;42.90;95028.94;4366019;32;20193;-64
2022/06/19 09:43:22;;;;;;;1.37;1.33;;;;;;;28.83;41.82;95030.34;4375042;32;20215;-65
2022/06/19 09:45:57;;;;;;;1.80;1.70;;;;;;;28.91;41.41;95026.28;4387415;32;20184;-65
2022/06/19 09:48:25;;;;;;;3.93;2.07;;;;;;;28.89;42.32;95029.41;4375075;32;20196;-65
2022/06/19 09:51:09;;;;;;;3.17;1.77;;;;;;;28.86;42.72;95034.97;4370168;32;20188;-64
2022/06/19 09:53:47;;;;;;;2.00;1.90;;;;;;;28.79;42.42;95024.13;4372022;32;20188;-65
2022/06/19 09:56:20;;;;;;;4.03;2.33;;;;;;;29.01;41.23;95019.84;4395007;32;20188;-64
2022/06/19 09:58:54;;;;;;;2.83;2.63;;;;;;;29.14;41.69;95026.22;4375498;32;20208;-64
2022/06/19 10:01:23;;;;;;;2.40;1.67;;;;;;;29.11;42.63;95018.84;4374494;32;20195;-64
2022/06/19 10:04:03;;;;;;;12.70;2.53;;;;;;;28.89;43.00;95013.03;4374238;32;20181;-64
2022/06/19 10:06:43;;;;;;;1.40;1.40;;;;;;;28.79;43.22;95015.94;4385848;32;20192;-63
2022/06/19 10:09:18;;;;;;;2.03;1.93;;;;;;;28.92;42.62;95011.41;4385517;32;20217;-61
2022/06/19 10:11:44;;;;;;;3.00;2.90;;;;;;;28.91;43.28;95004.41;4366612;32;20207;-63
2022/06/19 10:14:27;;;;;;;3.73;2.43;;;;;;;28.87;43.36;94999.03;4383656;32;20176;-63
2022/06/19 10:17:32;;;;;;;7.10;2.53;;;;;;;28.89;43.42;94993.16;4375459;32;20181;-64
2022/06/19 10:20:12;;;;;;;2.23;2.13;;;;;;;28.93;44.32;94991.88;4375198;32;20232;-63
2022/06/19 10:23:11;;;;;;;5.77;2.90;;;;;;;29.12;43.46;94987.59;4378539;32;20192;-64
2022/06/19 10:25:37;;;;;;;7.90;2.27;;;;;;;29.18;43.97;94987.88;4357775;32;20321;-63
2022/06/19 10:28:23;;;;;;;3.23;2.57;;;;;;;29.10;44.25;94983.78;4379657;32;20193;-64
2022/06/19 10:31:13;;;;;;;2.73;2.53;;;;;;;29.05;44.79;94985.03;4366668;32;20200;-64
2022/06/19 10:33:41;;;;;;;3.57;2.20;;;;;;;29.08;44.38;94983.44;4381912;32;20203;-63
2022/06/19 10:36:22;;;;;;;2.00;1.83;;;;;;;29.11;43.29;94980.59;4383191;32;20283;-64
2022/06/19 10:39:06;;;;;;;6.20;2.67;;;;;;;29.16;42.86;94980.13;4375378;32;20259;-64
2022/06/19 10:42:06;;;;;;;1.40;1.40;;;;;;;29.16;43.70;94980.13;4378486;32;20196;-64
2022/06/19 10:44:51;;;;;;;2.93;1.83;;;;;;;29.12;44.46;94984.88;4386867;32;20196;-63
2022/06/19 10:47:36;;;;;;;2.00;1.50;;;;;;;29.37;42.17;94982.41;4381442;32;20214;-64
2022/06/19 10:50:06;;;;;;;1.67;1.57;;;;;;;29.27;42.62;94977.94;4375032;32;20239;-63
2022/06/19 10:53:04;;;;;;;5.53;2.13;;;;;;;29.33;43.86;94978.19;4364927;32;20205;-63
2022/06/19 10:55:32;;;;;;;9.40;3.00;;;;;;;29.26;44.49;94970.94;4361416;32;20264;-63
2022/06/19 10:58:15;;;;;;;3.70;1.90;;;;;;;29.17;45.01;94970.72;4378943;32;20240;-63
2022/06/19 11:00:42;;;;;;;2.17;2.03;;;;;;;29.18;45.32;94974.22;4377157;32;20251;-61
2022/06/19 11:06:16;;;;;;;16.73;2.27;;;;;;;29.31;43.86;94962.22;4385660;32;20199;-63
2022/06/19 11:08:45;;;;;;;3.83;2.20;;;;;;;29.44;43.11;94947.94;4381778;32;20195;-63
2022/06/19 11:11:17;;;;;;;8.00;2.27;;;;;;;29.42;44.64;94955.78;4380253;32;20274;-62
2022/06/19 11:14:07;;;;;;;6.87;3.07;;;;;;;29.63;43.48;94944.38;4378512;32;20214;-63
2022/06/19 11:16:34;;;;;;;2.50;2.30;;;;;;;29.49;43.64;94950.94;4369560;32;20291;-63
2022/06/19 11:19:00;;;;;;;3.10;2.07;;;;;;;29.73;42.37;94948.81;4368143;32;20214;-63
2022/06/19 11:21:33;;;;;;;3.23;3.03;;;;;;;29.88;41.66;94955.53;4382001;32;20276;-62
2022/06/19 11:24:02;;;;;;;2.37;2.27;;;;;;;29.92;41.47;94947.22;4386113;32;20196;-63
2022/06/19 11:26:45;;;;;;;2.70;2.50;;;;;;;30.03;41.18;94945.03;4383720;32;20211;-62
2022/06/19 11:29:13;;;;;;;2.67;2.47;;;;;;;30.01;41.73;94942.72;4362939;32;20181;-63
2022/06/19 11:31:59;;;;;;;1.90;1.80;;;;;;;30.07;41.98;94946.47;4375062;32;20320;-62
2022/06/19 11:34:44;;;;;;;3.87;2.90;;;;;;;29.86;42.43;94938.75;4378479;32;20203;-63
2022/06/19 11:37:22;;;;;;;4.50;3.13;;;;;;;29.81;42.76;94933.03;4373960;32;20181;-63
2022/06/19 11:39:52;;;;;;;2.60;2.40;;;;;;;29.73;43.58;94943.34;4374602;32;20188;-63
2022/06/19 11:42:33;;;;;;;2.60;2.50;;;;;;;29.70;43.71;94941.50;4373747;32;20185;-62
2022/06/19 11:45:04;;;;;;;2.97;2.77;;;;;;;29.73;43.59;94932.41;4378824;32;20193;-63
2022/06/19 11:47:40;;;;;;;3.30;3.03;;;;;;;29.60;43.02;94940.53;4375462;32;20188;-62
2022/06/19 11:50:10;;;;;;;3.00;2.90;;;;;;;29.56;44.00;94933.59;4374367;32;20207;-62
2022/06/19 11:52:37;;;;;;;2.70;2.53;;;;;;;29.41;44.94;94941.34;4373959;32;20243;-62
2022/06/19 11:55:03;;;;;;;2.40;2.30;;;;;;;29.41;44.80;94933.16;4373926;32;20263;-62
2022/06/19 11:57:33;;;;;;;4.97;2.43;;;;;;;29.44;44.44;94937.00;4369122;32;20196;-62
2022/06/19 12:00:02;;;;;;;3.17;2.97;;;;;;;29.46;44.03;94935.38;4371612;32;20272;-62
2022/06/19 12:02:34;;;;;;;3.00;2.70;;;;;;;29.47;43.76;94936.16;4378050;32;20207;-62